createdAt,value
2022-07-26T00:00:16.741Z,18.73
2022-07-26T00:02:47.194Z,18.75
2022-07-26T00:05:15.820Z,19.98
2022-07-26T00:07:42.666Z,17.55
2022-07-26T00:10:09.556Z,24.70
2022-07-26T00:12:36.743Z,19.13
2022-07-26T00:15:06.101Z,18.33
2022-07-26T00:17:32.771Z,16.17
2022-07-26T00:19:59.647Z,20.75
2022-07-26T00:22:41.604Z,20.45
2022-07-26T00:25:09.627Z,17.50
2022-07-26T00:27:37.306Z,16.35
2022-07-26T00:30:07.703Z,20.80
2022-07-26T00:32:34.611Z,19.92
2022-07-26T00:35:01.412Z,15.25
2022-07-26T00:37:28.201Z,17.58
2022-07-26T00:39:54.924Z,12.27
2022-07-26T00:42:21.601Z,14.63
2022-07-26T00:44:48.353Z,17.95
2022-07-26T00:47:15.688Z,15.10
2022-07-26T00:49:43.275Z,13.52
2022-07-26T00:52:11.605Z,14.43
2022-07-26T00:54:40.231Z,13.50
2022-07-26T00:57:06.950Z,18.48
2022-07-26T00:59:33.762Z,17.08
2022-07-26T01:02:02.061Z,13.60
2022-07-26T01:04:29.099Z,15.02
2022-07-26T01:06:56.253Z,13.02
2022-07-26T01:09:23.370Z,21.58
2022-07-26T01:11:51.328Z,16.02
2022-07-26T01:14:22.514Z,16.00
2022-07-26T01:16:49.579Z,13.90
2022-07-26T01:19:17.060Z,18.33
2022-07-26T01:21:44.292Z,18.75
2022-07-26T01:24:11.229Z,13.85
2022-07-26T01:26:38.199Z,14.65
2022-07-26T01:29:05.482Z,14.30
2022-07-26T01:31:32.287Z,12.75
2022-07-26T01:33:59.262Z,18.58
2022-07-26T01:36:26.116Z,14.68
2022-07-26T01:38:52.906Z,12.15
2022-07-26T01:41:22.801Z,12.55
2022-07-26T01:44:06.057Z,14.23
2022-07-26T01:46:33.797Z,12.77
2022-07-26T01:49:01.710Z,13.95
2022-07-26T01:51:28.745Z,13.65
2022-07-26T01:53:55.510Z,11.18
2022-07-26T01:56:22.302Z,13.23
2022-07-26T01:58:50.026Z,15.68
2022-07-26T02:01:16.874Z,8.75
2022-07-26T02:06:29.956Z,12.30
2022-07-26T02:08:56.561Z,11.63
2022-07-26T02:11:23.332Z,11.60
2022-07-26T02:13:53.065Z,11.88
2022-07-26T02:16:20.185Z,12.75
2022-07-26T02:18:47.043Z,15.98
2022-07-26T02:21:13.729Z,11.02
2022-07-26T02:23:41.937Z,12.00
2022-07-26T02:26:09.405Z,11.90
2022-07-26T02:28:36.100Z,10.75
2022-07-26T02:31:02.970Z,12.27
2022-07-26T02:33:29.763Z,13.60
2022-07-26T02:35:56.526Z,11.45
2022-07-26T02:38:23.162Z,13.30
2022-07-26T02:40:52.867Z,15.55
2022-07-26T02:43:20.021Z,10.18
2022-07-26T02:46:01.574Z,12.15
2022-07-26T02:48:31.020Z,14.18
2022-07-26T02:50:57.837Z,11.93
2022-07-26T02:53:24.502Z,16.67
2022-07-26T02:55:51.130Z,11.38
2022-07-26T02:58:19.971Z,16.38
2022-07-26T03:00:46.637Z,14.57
2022-07-26T03:03:14.388Z,13.60
2022-07-26T03:05:41.505Z,15.73
2022-07-26T03:08:08.810Z,13.15
2022-07-26T03:10:35.635Z,20.25
2022-07-26T03:13:02.519Z,11.68
2022-07-26T03:15:29.419Z,12.82
2022-07-26T03:17:56.190Z,14.38
2022-07-26T03:20:23.058Z,14.98
2022-07-26T03:22:49.794Z,16.58
2022-07-26T03:25:16.550Z,12.82
2022-07-26T03:27:43.521Z,15.68
2022-07-26T03:30:11.024Z,17.30
2022-07-26T03:32:37.917Z,17.10
2022-07-26T03:35:06.295Z,17.40
2022-07-26T03:37:45.758Z,16.92
2022-07-26T03:40:14.991Z,11.65
2022-07-26T03:42:41.677Z,13.40
2022-07-26T03:45:09.408Z,14.05
2022-07-26T03:47:37.241Z,12.27
2022-07-26T03:50:05.593Z,17.10
2022-07-26T03:52:32.246Z,14.20
2022-07-26T03:54:59.067Z,11.73
2022-07-26T03:57:25.736Z,13.25
2022-07-26T03:59:58.405Z,16.02
2022-07-26T04:02:25.117Z,15.25
2022-07-26T04:04:51.810Z,15.13
2022-07-26T04:07:18.433Z,12.98
2022-07-26T04:09:45.914Z,16.88
2022-07-26T04:12:12.582Z,16.98
2022-07-26T04:14:42.531Z,14.20
2022-07-26T04:17:09.490Z,15.50
2022-07-26T04:19:39.817Z,13.10
2022-07-26T04:22:07.060Z,14.13
2022-07-26T04:24:33.753Z,14.05
2022-07-26T04:27:00.463Z,12.43
2022-07-26T04:29:27.195Z,15.07
2022-07-26T04:31:53.813Z,14.82
2022-07-26T04:34:20.487Z,9.95
2022-07-26T04:36:47.140Z,12.77
2022-07-26T04:39:13.756Z,12.40
2022-07-26T04:41:40.418Z,12.50
2022-07-26T04:44:07.435Z,14.60
2022-07-26T04:46:34.311Z,10.95
2022-07-26T04:49:01.132Z,16.75
2022-07-26T04:51:27.845Z,12.25
2022-07-26T04:53:54.549Z,12.80
2022-07-26T04:56:21.233Z,15.60
2022-07-26T04:58:47.984Z,13.73
2022-07-26T05:01:15.145Z,12.95
2022-07-26T05:03:41.996Z,11.80
2022-07-26T05:06:08.708Z,13.38
2022-07-26T05:08:35.413Z,13.30
2022-07-26T05:11:02.144Z,13.18
2022-07-26T05:13:29.813Z,13.05
2022-07-26T05:15:57.915Z,13.63
2022-07-26T05:18:25.735Z,12.65
2022-07-26T05:20:52.667Z,13.40
2022-07-26T05:23:20.654Z,14.15
2022-07-26T05:25:47.541Z,14.18
2022-07-26T05:28:14.424Z,16.67
2022-07-26T05:30:41.144Z,13.02
2022-07-26T05:33:08.022Z,15.57
2022-07-26T05:35:34.720Z,14.90
2022-07-26T05:38:02.009Z,14.73
2022-07-26T05:40:28.788Z,12.80
2022-07-26T05:42:55.740Z,17.85
2022-07-26T05:45:22.586Z,19.95
2022-07-26T05:47:51.006Z,19.33
2022-07-26T05:50:17.927Z,17.33
2022-07-26T05:52:44.860Z,17.33
2022-07-26T05:55:11.600Z,13.13
2022-07-26T05:57:41.567Z,17.27
2022-07-26T06:00:10.013Z,18.35
2022-07-26T06:02:36.832Z,15.93
2022-07-26T06:05:03.929Z,18.52
2022-07-26T06:07:30.676Z,18.50
2022-07-26T06:09:57.347Z,14.30
2022-07-26T06:12:24.173Z,18.90
2022-07-26T06:14:50.933Z,13.05
2022-07-26T06:17:17.699Z,12.73
2022-07-26T06:19:47.731Z,19.75
2022-07-26T06:22:14.990Z,13.77
2022-07-26T06:24:41.678Z,11.25
2022-07-26T06:27:08.417Z,14.48
2022-07-26T06:29:35.059Z,12.85
2022-07-26T06:32:02.142Z,12.95
2022-07-26T06:34:29.004Z,17.75
2022-07-26T06:36:55.737Z,17.65
2022-07-26T06:39:22.414Z,18.85
2022-07-26T06:41:49.123Z,15.80
2022-07-26T06:44:15.759Z,15.20
2022-07-26T06:46:42.407Z,16.27
2022-07-26T06:49:09.188Z,13.45
2022-07-26T06:51:35.878Z,16.33
2022-07-26T06:54:03.776Z,14.05
2022-07-26T06:56:30.456Z,14.38
2022-07-26T06:58:57.091Z,14.27
2022-07-26T07:01:58.273Z,13.20
2022-07-26T07:04:11.066Z,17.92
2022-07-26T07:06:38.009Z,18.70
2022-07-26T07:09:04.925Z,13.15
2022-07-26T07:11:35.353Z,13.60
2022-07-26T07:14:03.328Z,15.07
2022-07-26T07:16:30.339Z,18.70
2022-07-26T07:18:57.211Z,14.57
2022-07-26T07:21:23.911Z,14.15
2022-07-26T07:23:50.536Z,14.05
2022-07-26T07:26:17.189Z,13.60
2022-07-26T07:28:43.856Z,20.00
2022-07-26T07:31:10.569Z,14.32
2022-07-26T07:33:52.888Z,15.48
2022-07-26T07:36:21.434Z,12.68
2022-07-26T07:38:49.402Z,21.98
2022-07-26T07:41:16.373Z,14.45
2022-07-26T07:43:43.066Z,13.32
2022-07-26T07:46:09.860Z,14.15
2022-07-26T07:48:37.603Z,13.57
2022-07-26T07:51:04.389Z,13.80
2022-07-26T07:53:31.864Z,15.05
2022-07-26T07:55:58.753Z,12.05
2022-07-26T07:58:25.764Z,13.50
2022-07-26T08:00:55.139Z,11.13
2022-07-26T08:03:22.084Z,13.35
2022-07-26T08:05:49.850Z,16.98
2022-07-26T08:08:18.609Z,14.65
2022-07-26T08:10:51.902Z,14.52
2022-07-26T08:13:21.294Z,12.25
2022-07-26T08:15:51.215Z,16.00
2022-07-26T08:18:18.060Z,14.30
2022-07-26T08:20:48.686Z,13.98
2022-07-26T08:23:16.513Z,12.32
2022-07-26T08:25:55.724Z,12.57
2022-07-26T08:28:45.574Z,15.15
2022-07-26T08:31:10.257Z,15.98
2022-07-26T08:33:37.048Z,14.18
2022-07-26T08:36:07.775Z,14.95
2022-07-26T08:38:34.564Z,16.48
2022-07-26T08:41:01.279Z,15.32
2022-07-26T08:43:28.998Z,14.35
2022-07-26T08:46:04.177Z,16.23
2022-07-26T08:48:31.017Z,14.33
2022-07-26T08:50:59.788Z,15.93
2022-07-26T08:53:29.846Z,14.02
2022-07-26T08:56:06.776Z,18.50
2022-07-26T08:58:36.296Z,12.98
2022-07-26T09:01:05.923Z,17.50
2022-07-26T09:03:32.784Z,14.63
2022-07-26T09:06:12.221Z,13.70
2022-07-26T09:08:39.300Z,12.43
2022-07-26T09:11:28.257Z,19.27
2022-07-26T09:13:54.926Z,14.10
2022-07-26T09:16:21.741Z,14.23
2022-07-26T09:18:48.638Z,13.15
2022-07-26T09:21:31.871Z,14.38
2022-07-26T09:23:59.608Z,14.85
2022-07-26T09:26:27.229Z,14.50
2022-07-26T09:29:10.435Z,14.48
2022-07-26T09:31:39.183Z,15.43
2022-07-26T09:34:07.289Z,16.25
2022-07-26T09:36:51.595Z,13.30
2022-07-26T09:39:22.731Z,19.35
2022-07-26T09:42:26.835Z,16.92
2022-07-26T09:44:56.207Z,18.73
2022-07-26T09:47:24.176Z,17.13
2022-07-26T09:50:11.685Z,15.38
2022-07-26T09:52:38.653Z,20.63
2022-07-26T09:55:07.724Z,18.67
2022-07-26T09:57:36.225Z,19.70
2022-07-26T10:00:05.873Z,21.63
2022-07-26T10:02:34.694Z,20.92
2022-07-26T10:05:01.817Z,16.92
2022-07-26T10:07:28.816Z,25.00
2022-07-26T10:10:03.587Z,21.63
2022-07-26T10:12:33.102Z,16.88
2022-07-26T10:14:59.903Z,18.35
2022-07-26T10:17:45.907Z,19.35
2022-07-26T10:20:43.155Z,19.10
2022-07-26T10:23:36.466Z,20.00
2022-07-26T10:26:05.753Z,19.67
2022-07-26T10:28:35.410Z,20.70
2022-07-26T10:31:25.796Z,20.05
2022-07-26T10:33:54.853Z,18.90
2022-07-26T10:36:22.734Z,19.48
2022-07-26T10:39:06.387Z,19.10
2022-07-26T10:41:57.397Z,19.05
2022-07-26T10:44:25.667Z,20.63
2022-07-26T10:46:56.859Z,17.27
2022-07-26T10:49:40.644Z,22.80
2022-07-26T10:52:10.535Z,17.48
2022-07-26T10:55:07.834Z,18.13
2022-07-26T10:57:38.326Z,26.77
2022-07-26T11:00:21.905Z,16.10
2022-07-26T11:02:53.015Z,16.27
2022-07-26T11:05:20.415Z,16.67
2022-07-26T11:08:06.259Z,14.38
2022-07-26T11:10:37.563Z,20.80
2022-07-26T11:13:11.145Z,13.95
2022-07-26T11:15:40.546Z,14.48
2022-07-26T11:18:12.580Z,14.20
2022-07-26T11:20:41.039Z,19.13
2022-07-26T11:23:24.916Z,18.30
2022-07-26T11:26:12.250Z,21.75
2022-07-26T11:28:53.016Z,16.27
2022-07-26T11:31:51.420Z,14.65
2022-07-26T11:34:18.807Z,13.65
2022-07-26T11:36:47.424Z,15.13
2022-07-26T11:39:20.372Z,14.18
2022-07-26T11:41:47.250Z,15.63
2022-07-26T11:44:17.307Z,13.63
2022-07-26T11:46:47.841Z,16.88
2022-07-26T11:49:18.419Z,15.88
2022-07-26T11:51:49.261Z,17.25
2022-07-26T11:54:16.844Z,16.45
2022-07-26T11:57:07.222Z,12.27
2022-07-26T11:59:36.491Z,12.57
2022-07-26T12:02:08.805Z,10.82
2022-07-26T12:04:39.317Z,10.52
2022-07-26T12:07:11.581Z,8.98
2022-07-26T12:09:41.754Z,10.75
2022-07-26T12:12:10.753Z,11.75
2022-07-26T12:14:38.937Z,7.55
2022-07-26T12:17:20.912Z,8.48
2022-07-26T12:19:47.762Z,13.57
2022-07-26T12:22:17.362Z,8.73
2022-07-26T12:24:45.107Z,11.35
2022-07-26T12:27:14.928Z,10.10
2022-07-26T12:29:44.755Z,13.75
2022-07-26T12:32:13.519Z,9.00
2022-07-26T12:34:42.244Z,13.98
2022-07-26T12:37:14.596Z,8.43
2022-07-26T12:39:42.542Z,8.05
2022-07-26T12:42:34.618Z,7.20
2022-07-26T12:45:03.154Z,8.68
2022-07-26T12:47:30.025Z,10.02
2022-07-26T12:49:56.697Z,10.95
2022-07-26T12:52:24.014Z,12.88
2022-07-26T12:54:53.118Z,12.55
2022-07-26T12:57:21.055Z,9.52
2022-07-26T12:59:48.845Z,11.60
2022-07-26T13:02:18.402Z,9.82
2022-07-26T13:04:45.835Z,11.13
2022-07-26T13:07:15.721Z,5.55
2022-07-26T13:09:43.503Z,8.70
2022-07-26T13:12:11.636Z,9.27
2022-07-26T13:14:39.200Z,10.43
2022-07-26T13:17:07.405Z,5.70
2022-07-26T13:19:35.097Z,7.43
2022-07-26T13:22:03.096Z,8.93
2022-07-26T13:24:32.545Z,7.70
2022-07-26T13:27:00.821Z,5.88
2022-07-26T13:29:27.898Z,5.30
2022-07-26T13:31:55.966Z,10.38
2022-07-26T13:34:24.050Z,6.07
2022-07-26T13:36:50.893Z,6.60
2022-07-26T13:39:18.091Z,9.85
2022-07-26T13:41:44.921Z,6.60
2022-07-26T13:44:11.994Z,7.32
2022-07-26T13:46:41.785Z,8.18
2022-07-26T13:49:08.592Z,6.60
2022-07-26T13:51:52.769Z,6.72
2022-07-26T13:54:20.821Z,10.75
2022-07-26T13:56:47.746Z,11.02
2022-07-26T13:59:15.639Z,7.70
2022-07-26T14:01:44.697Z,6.75
2022-07-26T14:04:13.158Z,8.13
2022-07-26T14:06:40.853Z,4.68
2022-07-26T14:09:11.045Z,6.10
2022-07-26T14:11:38.435Z,6.05
2022-07-26T14:14:06.298Z,6.18
2022-07-26T14:16:35.690Z,5.60
2022-07-26T14:19:02.607Z,3.85
2022-07-26T14:21:47.072Z,9.30
2022-07-26T14:24:18.995Z,8.05
2022-07-26T14:26:47.833Z,3.10
2022-07-26T14:29:15.174Z,4.68
2022-07-26T14:31:41.995Z,10.18
2022-07-26T14:34:08.999Z,4.93
2022-07-26T14:36:37.130Z,5.78
2022-07-26T14:39:03.938Z,5.88
2022-07-26T14:41:31.728Z,6.05
2022-07-26T14:43:58.573Z,9.50
2022-07-26T14:46:25.240Z,4.70
2022-07-26T14:48:54.890Z,7.88
2022-07-26T14:51:22.254Z,5.13
2022-07-26T14:53:48.978Z,6.85
2022-07-26T14:56:15.597Z,4.93
2022-07-26T14:58:42.366Z,4.47
2022-07-26T15:01:09.266Z,4.47
2022-07-26T15:03:36.052Z,3.63
2022-07-26T15:06:02.838Z,6.15
2022-07-26T15:08:29.557Z,6.18
2022-07-26T15:10:56.219Z,6.57
2022-07-26T15:13:22.988Z,7.13
2022-07-26T15:15:50.234Z,8.05
2022-07-26T15:18:16.941Z,7.18
2022-07-26T15:20:43.856Z,6.80
2022-07-26T15:23:12.221Z,6.22
2022-07-26T15:25:38.970Z,5.63
2022-07-26T15:28:05.722Z,9.85
2022-07-26T15:30:36.115Z,5.25
2022-07-26T15:33:02.962Z,4.85
2022-07-26T15:35:30.044Z,7.18
2022-07-26T15:37:57.848Z,6.65
2022-07-26T15:40:24.836Z,6.88
2022-07-26T15:42:52.899Z,6.63
2022-07-26T15:45:20.470Z,11.20
2022-07-26T15:48:03.152Z,4.07
2022-07-26T15:55:28.190Z,5.57
2022-07-26T15:57:55.047Z,7.03
2022-07-26T16:00:22.134Z,5.70
2022-07-26T16:02:52.159Z,5.85
2022-07-26T16:05:19.000Z,5.38
2022-07-26T16:07:46.259Z,5.05
2022-07-26T16:10:14.295Z,5.95
2022-07-26T16:12:42.177Z,6.40
2022-07-26T16:15:10.276Z,8.35
2022-07-26T16:17:37.434Z,5.50
2022-07-26T16:20:05.342Z,4.90
2022-07-26T16:22:33.046Z,6.32
2022-07-26T16:24:59.773Z,7.80
2022-07-26T16:27:26.477Z,8.85
2022-07-26T16:29:53.296Z,4.85
2022-07-26T16:32:21.328Z,7.82
2022-07-26T16:34:48.357Z,6.75
2022-07-26T16:37:15.622Z,5.60
2022-07-26T16:39:42.619Z,4.43
2022-07-26T16:42:09.460Z,7.30
2022-07-26T16:44:36.459Z,5.47
2022-07-26T16:47:04.206Z,8.75
2022-07-26T16:49:31.313Z,9.02
2022-07-26T16:51:58.352Z,7.20
2022-07-26T16:54:25.239Z,7.53
2022-07-26T16:56:51.997Z,6.03
2022-07-26T16:59:18.977Z,5.30
2022-07-26T17:01:45.787Z,5.53
2022-07-26T17:04:12.642Z,10.05
2022-07-26T17:06:39.390Z,6.43
2022-07-26T17:09:06.084Z,5.60
2022-07-26T17:11:33.116Z,5.10
2022-07-26T17:13:59.916Z,5.70
2022-07-26T17:16:27.418Z,4.57
2022-07-26T17:18:55.382Z,4.97
2022-07-26T17:21:22.407Z,4.25
2022-07-26T17:23:50.363Z,5.40
2022-07-26T17:26:18.769Z,4.97
2022-07-26T17:28:46.009Z,6.93
2022-07-26T17:31:12.796Z,9.10
2022-07-26T17:33:39.652Z,7.38
2022-07-26T17:36:24.398Z,8.07
2022-07-26T17:38:52.028Z,4.68
2022-07-26T17:41:19.878Z,5.75
2022-07-26T17:43:47.292Z,6.53
2022-07-26T17:46:14.131Z,4.72
2022-07-26T17:48:43.947Z,3.25
2022-07-26T17:51:10.789Z,3.25
2022-07-26T17:53:37.520Z,6.10
2022-07-26T17:56:04.493Z,5.13
2022-07-26T17:58:31.318Z,5.18
2022-07-26T18:00:58.044Z,9.80
2022-07-26T18:03:24.935Z,6.03
2022-07-26T18:05:51.861Z,5.50
2022-07-26T18:08:18.677Z,4.07
2022-07-26T18:10:50.690Z,5.40
2022-07-26T18:13:17.897Z,4.53
2022-07-26T18:15:44.862Z,4.63
2022-07-26T18:18:11.664Z,6.35
2022-07-26T18:20:38.454Z,5.15
2022-07-26T18:23:05.267Z,4.13
2022-07-26T18:25:32.090Z,4.20
2022-07-26T18:28:03.271Z,3.65
2022-07-26T18:30:33.536Z,6.78
2022-07-26T18:33:00.342Z,4.28
2022-07-26T18:35:27.606Z,7.72
2022-07-26T18:37:54.598Z,5.63
2022-07-26T18:40:23.640Z,3.80
2022-07-26T18:42:50.709Z,4.32
2022-07-26T18:45:17.482Z,4.32
2022-07-26T18:47:44.292Z,6.00
2022-07-26T18:50:16.943Z,5.95
2022-07-26T18:52:44.736Z,8.50
2022-07-26T18:55:12.928Z,8.80
2022-07-26T18:57:41.186Z,6.00
2022-07-26T19:00:14.209Z,3.08
2022-07-26T19:02:41.933Z,6.55
2022-07-26T19:05:09.386Z,6.47
2022-07-26T19:07:37.676Z,2.97
2022-07-26T19:10:06.520Z,4.63
2022-07-26T19:12:33.312Z,6.30
2022-07-26T19:15:00.118Z,3.35
2022-07-26T19:17:28.001Z,4.47
2022-07-26T19:19:57.435Z,7.40
2022-07-26T19:22:25.952Z,4.75
2022-07-26T19:24:52.860Z,2.83
2022-07-26T19:27:19.686Z,6.50
2022-07-26T19:29:46.533Z,3.40
2022-07-26T19:32:13.179Z,2.60
2022-07-26T19:34:40.152Z,5.07
2022-07-26T19:37:06.823Z,3.80
2022-07-26T19:39:33.551Z,6.22
2022-07-26T19:42:00.218Z,3.35
2022-07-26T19:44:27.294Z,4.25
2022-07-26T19:46:57.469Z,5.13
2022-07-26T19:49:25.180Z,5.72
2022-07-26T19:51:52.021Z,8.52
2022-07-26T19:54:18.877Z,3.55
2022-07-26T19:56:45.527Z,5.70
2022-07-26T19:59:12.689Z,3.35
2022-07-26T20:01:39.769Z,5.05
2022-07-26T20:04:06.556Z,4.03
2022-07-26T20:06:33.606Z,3.08
2022-07-26T20:09:00.301Z,3.90
2022-07-26T20:11:28.239Z,2.85
2022-07-26T20:13:55.563Z,6.15
2022-07-26T20:16:22.427Z,12.80
2022-07-26T20:18:49.180Z,3.95
2022-07-26T20:21:16.141Z,5.53
2022-07-26T20:23:42.951Z,6.20
2022-07-26T20:26:09.779Z,5.47
2022-07-26T20:28:38.342Z,7.57
2022-07-26T20:31:05.149Z,4.55
2022-07-26T20:33:32.039Z,5.45
2022-07-26T20:35:58.787Z,6.55
2022-07-26T20:38:25.554Z,6.57
2022-07-26T20:40:52.800Z,3.63
2022-07-26T20:43:22.354Z,7.53
2022-07-26T20:45:49.646Z,3.97
2022-07-26T20:48:16.348Z,4.00
2022-07-26T20:50:43.151Z,6.30
2022-07-26T20:53:09.932Z,3.42
2022-07-26T20:55:37.069Z,2.90
2022-07-26T20:58:03.793Z,6.00
2022-07-26T21:00:30.632Z,3.53
2022-07-26T21:02:59.425Z,5.60
2022-07-26T21:05:30.855Z,3.00
2022-07-26T21:07:59.974Z,6.25
2022-07-26T21:10:29.304Z,4.35
2022-07-26T21:13:00.270Z,3.30
2022-07-26T21:15:29.220Z,5.97
2022-07-26T21:17:56.128Z,3.42
2022-07-26T21:20:22.792Z,3.70
2022-07-26T21:22:49.498Z,6.35
2022-07-26T21:25:16.232Z,4.50
2022-07-26T21:27:43.049Z,4.00
2022-07-26T21:30:10.256Z,11.93
2022-07-26T21:32:37.035Z,4.90
2022-07-26T21:35:04.380Z,5.75
2022-07-26T21:37:31.157Z,3.50
2022-07-26T21:39:57.772Z,8.75
2022-07-26T21:42:27.648Z,13.18
2022-07-26T21:44:54.323Z,9.00
2022-07-26T21:47:20.998Z,6.65
2022-07-26T21:49:47.674Z,4.18
2022-07-26T21:52:14.479Z,4.00
2022-07-26T21:54:41.141Z,7.55
2022-07-26T21:57:07.877Z,4.50
2022-07-26T21:59:34.613Z,4.57
2022-07-26T22:02:01.427Z,5.03
2022-07-26T22:04:28.190Z,6.20
2022-07-26T22:06:54.820Z,8.38
2022-07-26T22:09:21.494Z,6.38
2022-07-26T22:11:48.256Z,9.00
2022-07-26T22:14:14.958Z,3.88
2022-07-26T22:16:44.653Z,4.07
2022-07-26T22:19:11.748Z,2.42
2022-07-26T22:21:39.724Z,3.15
2022-07-26T22:24:06.909Z,4.88
2022-07-26T22:26:33.673Z,3.38
2022-07-26T22:29:00.562Z,4.68
2022-07-26T22:31:27.826Z,6.90
2022-07-26T22:33:54.565Z,5.72
2022-07-26T22:36:21.277Z,5.90
2022-07-26T22:38:48.058Z,6.20
2022-07-26T22:41:14.770Z,6.45
2022-07-26T22:43:41.500Z,6.68
2022-07-26T22:46:08.372Z,6.20
2022-07-26T22:48:38.383Z,4.80
2022-07-26T22:51:05.479Z,4.78
2022-07-26T22:53:32.166Z,7.07
2022-07-26T22:55:58.861Z,6.75
2022-07-26T22:58:25.538Z,4.72
2022-07-26T23:00:52.293Z,5.78
2022-07-26T23:03:21.578Z,6.50
2022-07-26T23:05:49.931Z,6.35
2022-07-26T23:11:04.808Z,7.15
2022-07-26T23:13:31.598Z,6.50
2022-07-26T23:16:01.288Z,9.70
2022-07-26T23:18:29.957Z,3.38
2022-07-26T23:20:56.944Z,8.50
2022-07-26T23:23:24.991Z,7.15
2022-07-26T23:25:56.080Z,7.50
2022-07-26T23:28:35.866Z,6.35
2022-07-26T23:31:06.406Z,8.05
2022-07-26T23:33:51.415Z,9.82
2022-07-26T23:36:19.931Z,6.47
2022-07-26T23:38:46.579Z,7.15
2022-07-26T23:41:13.277Z,7.53
2022-07-26T23:43:39.981Z,9.35
2022-07-26T23:46:06.653Z,7.95
2022-07-26T23:48:33.436Z,5.97
2022-07-26T23:51:00.109Z,8.20
2022-07-26T23:53:27.427Z,7.72
2022-07-26T23:55:54.807Z,8.30
2022-07-26T23:58:21.952Z,6.65
